Time;durP1;ratioP1;P1;durP2;ratioP2;P2;SDS_P1;SDS_P2;PMS_P1;PMS_P2;Temp;Humidity;BMP_temperature;BMP_pressure;BME280_temperature;BME280_humidity;BME280_pressure;Samples;Min_cycle;Max_cycle;Signal;HPM_P1;HPM_P2
2021/12/03 00:01:00;;;;;;;0.30;0.30;;;0.10;99.90;;;;;;5004661;28;20046;-83
2021/12/03 00:03:27;;;;;;;0.20;0.20;;;0.20;99.90;;;;;;5036279;28;20045;-84
2021/12/03 00:05:56;;;;;;;0.30;0.30;;;0.20;99.90;;;;;;5036888;28;20075;-82
2021/12/03 00:08:25;;;;;;;0.30;0.30;;;0.20;99.90;;;;;;5036309;28;20564;-84
2021/12/03 00:10:55;;;;;;;0.30;0.30;;;0.20;99.90;;;;;;5020767;28;20033;-83
2021/12/03 00:13:23;;;;;;;0.25;0.25;;;0.20;99.90;;;;;;5036711;28;20037;-83
2021/12/03 00:15:52;;;;;;;0.30;0.30;;;0.20;99.90;;;;;;5004395;28;20466;-83
2021/12/03 00:18:19;;;;;;;0.30;0.30;;;0.20;99.90;;;;;;5036344;28;20071;-82
2021/12/03 00:20:46;;;;;;;0.20;0.20;;;0.20;99.90;;;;;;5019947;28;20041;-84
2021/12/03 00:23:15;;;;;;;0.30;0.30;;;0.20;99.90;;;;;;5016552;28;20839;-83
2021/12/03 00:25:42;;;;;;;0.20;0.20;;;0.20;99.90;;;;;;5016465;28;20156;-83
2021/12/03 00:28:09;;;;;;;0.30;0.30;;;0.20;99.90;;;;;;5049155;28;20128;-84
2021/12/03 00:30:37;;;;;;;0.30;0.30;;;0.20;99.90;;;;;;5048886;28;20049;-83
2021/12/03 00:33:06;;;;;;;0.25;0.25;;;0.30;99.90;;;;;;5048854;28;20085;-82
2021/12/03 00:35:33;;;;;;;0.20;0.20;;;0.30;99.90;;;;;;5048688;28;20795;-84
2021/12/03 00:38:01;;;;;;;0.22;0.22;;;0.40;99.90;;;;;;5049233;28;20108;-84
2021/12/03 00:40:34;;;;;;;0.30;0.30;;;0.40;99.90;;;;;;5048825;28;20045;-82
2021/12/03 00:43:03;;;;;;;0.20;0.20;;;0.80;99.90;;;;;;5049007;28;20037;-82
2021/12/03 00:45:31;;;;;;;0.32;0.32;;;0.40;99.90;;;;;;5048940;28;20045;-83
2021/12/03 00:47:59;;;;;;;0.22;0.22;;;0.90;99.90;;;;;;5049119;28;20502;-82
2021/12/03 00:50:28;;;;;;;0.22;0.22;;;0.30;99.90;;;;;;5048444;28;20418;-85
2021/12/03 00:52:56;;;;;;;0.30;0.30;;;0.40;99.90;;;;;;5032359;28;20068;-83
2021/12/03 00:55:27;;;;;;;0.20;0.20;;;0.30;99.90;;;;;;5016013;28;20524;-84
2021/12/03 00:57:54;;;;;;;0.20;0.20;;;0.40;99.90;;;;;;5048194;28;20454;-82
2021/12/03 01:00:24;;;;;;;0.30;0.30;;;0.40;99.90;;;;;;5016050;28;20041;-83
2021/12/03 01:02:56;;;;;;;0.22;0.22;;;0.80;99.90;;;;;;5048350;28;20041;-82
2021/12/03 01:05:23;;;;;;;0.30;0.30;;;0.40;99.90;;;;;;5048363;28;20049;-82
2021/12/03 01:07:49;;;;;;;0.30;0.30;;;1.30;99.90;;;;;;4999053;28;20042;-84
2021/12/03 01:10:17;;;;;;;0.30;0.30;;;1.20;99.90;;;;;;4999554;28;20046;-82
2021/12/03 01:12:44;;;;;;;0.30;0.30;;;1.20;99.90;;;;;;5031644;28;20503;-82
2021/12/03 01:15:15;;;;;;;0.20;0.20;;;1.40;99.90;;;;;;5015813;28;20113;-82
2021/12/03 01:17:42;;;;;;;0.20;0.20;;;0.40;99.90;;;;;;5047966;28;20430;-84
2021/12/03 01:20:10;;;;;;;0.20;0.20;;;0.40;99.90;;;;;;5015546;28;20124;-84
2021/12/03 01:22:38;;;;;;;0.30;0.30;;;0.30;99.90;;;;;;5031394;28;20058;-84
2021/12/03 01:25:07;;;;;;;0.20;0.20;;;0.40;99.90;;;;;;5016039;28;20042;-84
2021/12/03 01:27:34;;;;;;;0.20;0.20;;;0.40;99.90;;;;;;5031261;28;20037;-83
2021/12/03 01:30:01;;;;;;;0.20;0.20;;;0.40;99.90;;;;;;5032143;28;20053;-82
2021/12/03 01:32:28;;;;;;;0.20;0.20;;;0.40;99.90;;;;;;5047788;28;20072;-82
2021/12/03 01:34:54;;;;;;;0.30;0.30;;;0.50;99.90;;;;;;4998994;28;20045;-83
2021/12/03 01:37:21;;;;;;;0.20;0.20;;;0.40;99.90;;;;;;4999288;28;20095;-82
2021/12/03 01:39:48;;;;;;;0.20;0.20;;;1.50;99.90;;;;;;5031234;28;20080;-82
2021/12/03 01:42:15;;;;;;;0.20;0.20;;;0.50;99.90;;;;;;5031271;28;20042;-82
2021/12/03 01:44:41;;;;;;;0.20;0.20;;;0.50;99.90;;;;;;5030883;28;20065;-84
2021/12/03 01:47:09;;;;;;;0.30;0.30;;;0.40;99.90;;;;;;5031101;28;20129;-81
2021/12/03 01:49:35;;;;;;;0.20;0.20;;;0.50;99.90;;;;;;5031056;28;20503;-83
2021/12/03 01:52:03;;;;;;;0.20;0.20;;;1.40;99.90;;;;;;5031064;28;20081;-82
2021/12/03 01:54:30;;;;;;;0.30;0.30;;;0.50;99.90;;;;;;5031372;28;20041;-82
2021/12/03 01:56:56;;;;;;;0.30;0.30;;;1.00;99.90;;;;;;5014660;28;20072;-84
2021/12/03 01:59:23;;;;;;;0.28;0.28;;;0.40;99.90;;;;;;5015057;28;20050;-83
2021/12/03 02:01:50;;;;;;;0.30;0.30;;;0.40;99.90;;;;;;4998863;28;20375;-82
2021/12/03 02:04:17;;;;;;;0.30;0.30;;;0.50;99.90;;;;;;5014694;28;20049;-82
2021/12/03 02:06:43;;;;;;;0.30;0.30;;;0.50;99.90;;;;;;5030995;28;20041;-83
2021/12/03 02:09:10;;;;;;;0.20;0.20;;;0.50;99.90;;;;;;5047332;28;20388;-84
2021/12/03 02:11:37;;;;;;;0.20;0.20;;;0.40;99.90;;;;;;5030758;28;20046;-83
2021/12/03 02:14:05;;;;;;;0.30;0.30;;;0.60;99.90;;;;;;5030826;28;20045;-83
2021/12/03 02:16:32;;;;;;;0.20;0.20;;;0.40;99.90;;;;;;4998872;28;20557;-83
2021/12/03 02:18:59;;;;;;;0.20;0.20;;;0.50;99.90;;;;;;5013591;28;20045;-84
2021/12/03 02:21:26;;;;;;;0.20;0.20;;;0.50;99.90;;;;;;4998380;28;20495;-82
2021/12/03 02:23:53;;;;;;;0.20;0.20;;;0.50;99.90;;;;;;5030025;28;20072;-83
2021/12/03 02:26:20;;;;;;;0.20;0.20;;;0.90;99.90;;;;;;4998465;28;20605;-84
2021/12/03 02:28:50;;;;;;;0.20;0.20;;;0.50;99.90;;;;;;5046472;28;20045;-83
2021/12/03 02:31:19;;;;;;;0.30;0.30;;;0.50;99.90;;;;;;5046592;28;20541;-84
2021/12/03 02:33:46;;;;;;;0.20;0.20;;;0.50;99.90;;;;;;5030341;28;20097;-84
2021/12/03 02:36:13;;;;;;;0.20;0.20;;;0.60;99.90;;;;;;5030362;28;20052;-84
2021/12/03 02:38:40;;;;;;;0.30;0.30;;;0.60;99.90;;;;;;5014257;28;20046;-83
2021/12/03 02:41:07;;;;;;;0.25;0.25;;;0.60;99.90;;;;;;5045900;28;20099;-84
2021/12/03 02:43:35;;;;;;;0.20;0.20;;;0.60;99.90;;;;;;5029799;28;20410;-84
2021/12/03 02:46:02;;;;;;;0.30;0.30;;;0.60;99.90;;;;;;5046075;28;20131;-84
2021/12/03 02:48:31;;;;;;;0.20;0.20;;;0.60;99.90;;;;;;5030294;28;20077;-83
2021/12/03 02:50:58;;;;;;;0.30;0.30;;;0.60;99.90;;;;;;5030109;28;20042;-84
2021/12/03 02:53:25;;;;;;;0.25;0.25;;;0.60;99.90;;;;;;5030398;28;20100;-84
2021/12/03 02:55:52;;;;;;;0.30;0.30;;;0.60;99.90;;;;;;4997351;28;20531;-83
2021/12/03 02:58:20;;;;;;;0.20;0.20;;;0.60;99.90;;;;;;5030259;28;20042;-83
2021/12/03 03:00:49;;;;;;;0.28;0.28;;;0.60;99.90;;;;;;5013618;28;20045;-84
2021/12/03 03:03:16;;;;;;;0.30;0.30;;;0.60;99.90;;;;;;5046629;28;20030;-84
2021/12/03 03:05:55;;;;;;;0.20;0.20;;;0.50;99.90;;;;;;4998125;28;20487;-83
2021/12/03 03:08:22;;;;;;;0.28;0.28;;;0.50;99.90;;;;;;5046345;28;20128;-84
2021/12/03 03:10:50;;;;;;;0.30;0.30;;;0.50;99.90;;;;;;5046013;28;20483;-83
2021/12/03 03:13:17;;;;;;;0.30;0.30;;;1.00;99.90;;;;;;5014066;28;20046;-84
2021/12/03 03:15:44;;;;;;;0.30;0.30;;;0.60;99.90;;;;;;5046070;28;20406;-83
2021/12/03 03:18:14;;;;;;;0.30;0.30;;;0.60;99.90;;;;;;5045778;28;20430;-82
2021/12/03 03:20:43;;;;;;;0.20;0.20;;;0.80;99.90;;;;;;5046094;28;20049;-84
2021/12/03 03:23:12;;;;;;;0.40;0.40;;;1.60;99.90;;;;;;5013363;28;20058;-84
2021/12/03 03:25:40;;;;;;;0.20;0.20;;;0.60;99.90;;;;;;4998021;28;20498;-82
2021/12/03 03:28:08;;;;;;;0.30;0.30;;;1.20;99.90;;;;;;5029738;28;20068;-82
2021/12/03 03:30:35;;;;;;;0.20;0.20;;;0.60;99.90;;;;;;5000031;28;20100;-82
2021/12/03 03:33:03;;;;;;;0.30;0.30;;;1.10;99.90;;;;;;5033486;28;20545;-82
2021/12/03 03:35:30;;;;;;;0.30;0.30;;;1.50;99.90;;;;;;5017848;28;20084;-83
2021/12/03 03:37:56;;;;;;;0.20;0.20;;;0.60;99.90;;;;;;5017035;28;20461;-83
2021/12/03 03:40:23;;;;;;;0.30;0.30;;;0.60;99.90;;;;;;5017259;28;20040;-82
2021/12/03 03:42:50;;;;;;;0.20;0.20;;;0.60;99.90;;;;;;5049682;28;20084;-83
2021/12/03 03:45:20;;;;;;;0.30;0.30;;;0.90;99.90;;;;;;5017649;28;20533;-82
2021/12/03 03:47:47;;;;;;;0.20;0.20;;;0.50;99.90;;;;;;5049883;28;20053;-83
2021/12/03 03:50:15;;;;;;;0.30;0.30;;;0.50;99.90;;;;;;5033016;28;20506;-82
2021/12/03 03:52:43;;;;;;;0.20;0.20;;;0.50;99.90;;;;;;5050152;28;20034;-83
2021/12/03 03:55:12;;;;;;;0.52;0.52;;;1.00;99.90;;;;;;5049430;28;20124;-81
2021/12/03 03:57:41;;;;;;;0.35;0.35;;;0.50;99.90;;;;;;5049701;28;20041;-81
2021/12/03 04:00:12;;;;;;;0.20;0.20;;;0.90;99.90;;;;;;5001268;28;20045;-81
2021/12/03 04:02:39;;;;;;;0.60;0.60;;;0.40;99.90;;;;;;5049790;28;20038;-83
2021/12/03 04:05:07;;;;;;;0.95;0.77;;;0.40;99.90;;;;;;5016862;28;20044;-83
2021/12/03 04:07:33;;;;;;;0.30;0.30;;;0.40;99.90;;;;;;5049537;28;20092;-82
2021/12/03 04:10:00;;;;;;;0.22;0.22;;;0.40;99.90;;;;;;5000628;28;20042;-83
2021/12/03 04:12:27;;;;;;;0.30;0.30;;;0.50;99.90;;;;;;5016895;28;20049;-82
2021/12/03 04:14:53;;;;;;;0.20;0.20;;;1.10;99.90;;;;;;5032708;28;20046;-82
2021/12/03 04:17:20;;;;;;;0.20;0.20;;;0.40;99.90;;;;;;5000743;28;20037;-83
2021/12/03 04:19:47;;;;;;;0.30;0.30;;;0.40;99.90;;;;;;5030555;28;20041;-82
2021/12/03 04:22:17;;;;;;;0.30;0.30;;;1.40;99.90;;;;;;5045406;28;20047;-83
2021/12/03 04:24:44;;;;;;;0.20;0.20;;;1.30;99.90;;;;;;5036968;28;20567;-83
2021/12/03 04:27:11;;;;;;;0.30;0.30;;;0.40;99.90;;;;;;5003926;28;20040;-82
2021/12/03 04:29:37;;;;;;;0.20;0.20;;;0.50;99.90;;;;;;5003759;28;20128;-83
2021/12/03 04:32:05;;;;;;;0.20;0.20;;;1.10;99.90;;;;;;5019528;28;20037;-83
2021/12/03 04:34:31;;;;;;;0.20;0.20;;;0.40;99.90;;;;;;5020317;28;20052;-82
2021/12/03 04:36:58;;;;;;;0.20;0.20;;;1.00;99.90;;;;;;5003440;28;20402;-82
2021/12/03 04:39:25;;;;;;;0.20;0.20;;;1.30;99.90;;;;;;5019520;28;20065;-82
2021/12/03 04:41:52;;;;;;;0.30;0.30;;;1.40;99.90;;;;;;5020580;28;20095;-83
2021/12/03 04:44:18;;;;;;;0.20;0.20;;;1.20;99.90;;;;;;5019328;28;20402;-82
2021/12/03 04:46:45;;;;;;;0.10;0.10;;;0.40;99.90;;;;;;5030951;28;20102;-82
2021/12/03 04:49:12;;;;;;;0.20;0.20;;;0.50;99.90;;;;;;5038787;28;20098;-82
2021/12/03 04:51:39;;;;;;;0.20;0.20;;;0.40;99.90;;;;;;5022886;28;20041;-83
2021/12/03 04:54:05;;;;;;;0.30;0.30;;;0.40;99.90;;;;;;5038976;28;20511;-83
2021/12/03 04:56:32;;;;;;;0.30;0.30;;;0.60;99.90;;;;;;5039863;28;20482;-83
2021/12/03 04:58:59;;;;;;;0.20;0.20;;;0.80;99.90;;;;;;5055022;28;20041;-81
2021/12/03 05:01:26;;;;;;;0.20;0.20;;;0.40;99.90;;;;;;5039120;28;20029;-82
2021/12/03 05:03:52;;;;;;;0.30;0.30;;;0.30;99.90;;;;;;5071776;28;20044;-81
2021/12/03 05:06:29;;;;;;;0.20;0.20;;;0.40;99.90;;;;;;5039250;28;20041;-81
2021/12/03 05:08:56;;;;;;;0.20;0.20;;;0.30;99.90;;;;;;5042179;28;20107;-83
2021/12/03 05:11:23;;;;;;;0.20;0.20;;;0.30;99.90;;;;;;5054927;28;20044;-81
2021/12/03 05:13:49;;;;;;;0.25;0.25;;;0.30;99.90;;;;;;5038749;28;20041;-81
2021/12/03 05:16:16;;;;;;;0.30;0.30;;;1.30;99.90;;;;;;5038582;28;20045;-81
2021/12/03 05:18:45;;;;;;;0.30;0.30;;;0.30;99.90;;;;;;5038688;28;20078;-81
2021/12/03 05:21:12;;;;;;;0.20;0.20;;;0.30;99.90;;;;;;5039576;28;20132;-83
2021/12/03 05:23:38;;;;;;;0.20;0.20;;;0.30;99.90;;;;;;5054824;28;20131;-82
2021/12/03 05:26:05;;;;;;;0.30;0.30;;;0.90;99.90;;;;;;5038466;28;20049;-82
2021/12/03 05:28:32;;;;;;;0.20;0.20;;;1.30;99.90;;;;;;5055009;28;20106;-82
2021/12/03 05:30:59;;;;;;;0.30;0.30;;;1.10;99.90;;;;;;5071576;28;20080;-83
2021/12/03 05:33:25;;;;;;;0.20;0.20;;;0.40;99.90;;;;;;5038413;28;20496;-82
2021/12/03 05:35:52;;;;;;;0.30;0.30;;;0.80;99.90;;;;;;5070854;28;20092;-82
2021/12/03 05:38:19;;;;;;;0.20;0.20;;;1.50;99.90;;;;;;5038154;28;20037;-84
2021/12/03 05:40:46;;;;;;;0.20;0.20;;;1.30;99.90;;;;;;5054416;28;20405;-83
2021/12/03 05:43:12;;;;;;;0.30;0.30;;;1.40;99.90;;;;;;5054257;28;20124;-84
2021/12/03 05:45:39;;;;;;;0.30;0.30;;;0.40;99.90;;;;;;5038513;28;20075;-83
2021/12/03 05:48:06;;;;;;;0.20;0.20;;;0.40;99.90;;;;;;5037847;28;20040;-82
2021/12/03 05:50:33;;;;;;;0.20;0.20;;;0.30;99.90;;;;;;5038466;28;20123;-84
2021/12/03 05:53:00;;;;;;;0.20;0.20;;;0.30;99.90;;;;;;5038024;28;20456;-82
2021/12/03 05:55:27;;;;;;;0.20;0.20;;;1.10;99.90;;;;;;5037965;28;20053;-84
2021/12/03 05:57:54;;;;;;;0.30;0.30;;;0.30;99.90;;;;;;5054584;28;20063;-84
2021/12/03 06:00:25;;;;;;;0.20;0.20;;;0.40;99.90;;;;;;5070346;28;20033;-82
2021/12/03 06:02:52;;;;;;;0.20;0.20;;;0.40;99.90;;;;;;5054559;28;20036;-84
2021/12/03 06:05:24;;;;;;;0.30;0.30;;;0.40;99.90;;;;;;5037749;28;20068;-82
2021/12/03 06:07:51;;;;;;;0.20;0.20;;;1.30;99.90;;;;;;5054157;28;20405;-82
2021/12/03 06:10:18;;;;;;;0.30;0.30;;;0.40;99.90;;;;;;5054138;28;20029;-83
2021/12/03 06:12:46;;;;;;;0.30;0.30;;;0.40;99.90;;;;;;5037672;28;20048;-84
2021/12/03 06:15:13;;;;;;;0.30;0.30;;;1.30;99.90;;;;;;5054113;28;20123;-83
2021/12/03 06:17:40;;;;;;;0.20;0.20;;;0.40;99.90;;;;;;5070381;28;20103;-82
2021/12/03 06:20:08;;;;;;;0.30;0.30;;;0.40;99.90;;;;;;5038422;28;20049;-82
2021/12/03 06:22:36;;;;;;;0.20;0.20;;;0.50;99.90;;;;;;5035028;28;20033;-84
2021/12/03 06:25:04;;;;;;;0.20;0.20;;;0.50;99.90;;;;;;5044427;28;20132;-82
2021/12/03 06:27:31;;;;;;;0.30;0.30;;;0.50;99.90;;;;;;5032769;28;20056;-83
2021/12/03 06:29:59;;;;;;;0.20;0.20;;;0.80;99.90;;;;;;4998392;28;20081;-83
2021/12/03 06:32:26;;;;;;;0.30;0.30;;;0.50;99.90;;;;;;5030015;28;20458;-83
2021/12/03 06:34:53;;;;;;;0.30;0.30;;;0.50;99.90;;;;;;5040893;28;20033;-83
2021/12/03 06:37:20;;;;;;;0.20;0.20;;;0.50;99.90;;;;;;5017632;28;20041;-84
2021/12/03 06:39:47;;;;;;;0.80;0.50;;;0.40;99.90;;;;;;5030757;28;20118;-82
2021/12/03 06:42:13;;;;;;;0.20;0.20;;;0.40;99.90;;;;;;5038847;28;20052;-82
2021/12/03 06:44:40;;;;;;;0.30;0.30;;;0.40;99.90;;;;;;5045524;28;20041;-81
2021/12/03 06:47:07;;;;;;;0.85;0.85;;;1.40;99.90;;;;;;5066446;28;20042;-82
2021/12/03 06:49:34;;;;;;;0.20;0.20;;;0.40;99.90;;;;;;5066033;28;20163;-81
2021/12/03 06:52:09;;;;;;;0.20;0.20;;;0.40;99.90;;;;;;5066643;28;20033;-81
2021/12/03 06:54:36;;;;;;;0.20;0.20;;;0.40;99.90;;;;;;5066423;28;20119;-82
2021/12/03 06:57:05;;;;;;;0.20;0.20;;;0.40;99.90;;;;;;5033621;28;20505;-82
2021/12/03 06:59:33;;;;;;;0.20;0.20;;;0.40;99.90;;;;;;5066134;28;20042;-82
2021/12/03 07:02:00;;;;;;;0.30;0.30;;;0.50;99.90;;;;;;5033563;28;20050;-83
2021/12/03 07:04:27;;;;;;;0.20;0.20;;;1.30;99.90;;;;;;5048972;28;20045;-82
2021/12/03 07:06:54;;;;;;;0.47;0.47;;;0.50;99.90;;;;;;5033423;28;20060;-83
2021/12/03 07:09:20;;;;;;;0.22;0.22;;;0.40;99.90;;;;;;5033159;28;20107;-83
2021/12/03 07:11:47;;;;;;;0.20;0.20;;;0.50;99.90;;;;;;5033367;28;20049;-82
2021/12/03 07:14:14;;;;;;;0.20;0.20;;;1.10;99.90;;;;;;5065615;28;20472;-82
2021/12/03 07:16:41;;;;;;;0.20;0.20;;;0.50;99.90;;;;;;5027055;28;20049;-82
2021/12/03 07:19:08;;;;;;;0.20;0.20;;;1.60;99.90;;;;;;5032818;28;20038;-83
2021/12/03 07:21:35;;;;;;;0.22;0.22;;;0.50;99.90;;;;;;5032577;28;20044;-81
2021/12/03 07:24:02;;;;;;;0.43;0.43;;;1.30;99.90;;;;;;5032795;28;20057;-82
2021/12/03 07:26:29;;;;;;;0.20;0.20;;;0.60;99.90;;;;;;5049162;28;20042;-84
2021/12/03 07:28:55;;;;;;;0.20;0.20;;;0.60;99.90;;;;;;5033101;28;20406;-82
2021/12/03 07:31:22;;;;;;;0.20;0.20;;;0.70;99.90;;;;;;5016435;28;20053;-82
2021/12/03 07:33:50;;;;;;;0.30;0.30;;;1.40;99.90;;;;;;5046333;28;20038;-82
2021/12/03 07:36:17;;;;;;;0.20;0.20;;;1.80;99.90;;;;;;5057758;28;20517;-82
2021/12/03 07:38:44;;;;;;;0.30;0.30;;;0.80;99.90;;;;;;5039265;28;20050;-85
2021/12/03 07:41:11;;;;;;;0.17;0.17;;;1.30;99.90;;;;;;5021461;28;20109;-85
2021/12/03 07:43:37;;;;;;;0.20;0.20;;;0.80;99.90;;;;;;5028984;28;20414;-83
2021/12/03 07:46:04;;;;;;;0.20;0.20;;;1.70;99.90;;;;;;5044989;28;20042;-84
2021/12/03 07:48:33;;;;;;;0.20;0.20;;;1.50;99.90;;;;;;5021760;28;20026;-85
2021/12/03 07:50:59;;;;;;;0.20;0.20;;;0.90;99.90;;;;;;5041263;28;20038;-83
2021/12/03 07:53:26;;;;;;;0.20;0.20;;;1.50;99.90;;;;;;5004404;28;20096;-84
2021/12/03 07:55:54;;;;;;;0.20;0.20;;;0.90;99.90;;;;;;5032988;28;20088;-83
2021/12/03 07:58:21;;;;;;;0.20;0.20;;;1.20;99.90;;;;;;5065757;28;20038;-85
2021/12/03 08:00:48;;;;;;;0.20;0.20;;;0.90;99.90;;;;;;5048985;28;20461;-84
2021/12/03 08:03:16;;;;;;;0.20;0.20;;;1.40;99.90;;;;;;5045612;28;20088;-82
2021/12/03 08:05:43;;;;;;;0.20;0.20;;;2.10;99.90;;;;;;5045395;28;20046;-82
2021/12/03 08:08:09;;;;;;;0.30;0.30;;;1.00;99.90;;;;;;5040043;28;20041;-85
2021/12/03 08:10:36;;;;;;;0.30;0.30;;;1.60;99.90;;;;;;5035904;28;20049;-84
2021/12/03 08:13:03;;;;;;;0.55;0.55;;;1.00;99.90;;;;;;5065529;28;20450;-85
2021/12/03 08:15:36;;;;;;;0.20;0.20;;;1.20;99.90;;;;;;5065233;28;20084;-83
2021/12/03 08:18:04;;;;;;;0.20;0.20;;;1.40;99.90;;;;;;5052919;28;20049;-83
2021/12/03 08:20:31;;;;;;;0.20;0.20;;;1.10;99.90;;;;;;5068658;28;20124;-82
2021/12/03 08:22:58;;;;;;;0.20;0.20;;;1.20;99.90;;;;;;5020812;28;20033;-84
2021/12/03 08:25:26;;;;;;;0.20;0.20;;;1.10;99.90;;;;;;5038488;28;20129;-82
2021/12/03 08:27:53;;;;;;;0.30;0.30;;;1.30;99.90;;;;;;5020034;28;20038;-84
2021/12/03 08:30:20;;;;;;;0.30;0.30;;;1.30;99.90;;;;;;5027527;28;20501;-82
2021/12/03 08:32:48;;;;;;;0.20;0.20;;;1.10;99.90;;;;;;5040230;28;20042;-84
2021/12/03 08:35:15;;;;;;;0.20;0.20;;;1.10;99.90;;;;;;5047137;28;20132;-82
2021/12/03 08:37:45;;;;;;;0.20;0.20;;;1.90;99.90;;;;;;5027226;28;20136;-82
2021/12/03 08:40:12;;;;;;;0.20;0.20;;;1.10;99.90;;;;;;5017674;28;20060;-81
2021/12/03 08:42:39;;;;;;;0.20;0.20;;;1.10;99.90;;;;;;5051704;28;20033;-82
2021/12/03 08:45:07;;;;;;;0.13;0.13;;;1.10;99.90;;;;;;5035764;28;20560;-82
2021/12/03 08:47:35;;;;;;;0.25;0.25;;;1.20;99.90;;;;;;5052036;28;20044;-83
2021/12/03 08:50:07;;;;;;;0.20;0.20;;;1.20;99.90;;;;;;5035882;28;20041;-80
2021/12/03 08:55:13;;;;;;;0.17;0.17;;;1.20;99.90;;;;;;5053689;28;20071;-83
2021/12/03 08:57:40;;;;;;;0.20;0.20;;;1.90;99.90;;;;;;5064915;28;20099;-82
2021/12/03 09:00:15;;;;;;;0.20;0.20;;;1.30;99.90;;;;;;5035479;28;20091;-82
2021/12/03 09:02:43;;;;;;;0.40;0.40;;;1.30;99.90;;;;;;5051586;28;20041;-81
2021/12/03 09:05:12;;;;;;;0.20;0.20;;;1.40;99.90;;;;;;5068175;28;20072;-81
2021/12/03 09:07:39;;;;;;;0.20;0.20;;;1.40;99.90;;;;;;5051366;28;20080;-82
2021/12/03 09:10:10;;;;;;;0.20;0.20;;;1.40;99.90;;;;;;5051800;28;20041;-81
2021/12/03 09:12:37;;;;;;;0.20;0.20;;;1.40;99.90;;;;;;5048838;28;20045;-83
2021/12/03 09:15:08;;;;;;;0.20;0.20;;;2.20;99.90;;;;;;5035118;28;20653;-84
2021/12/03 09:22:57;;;;;;;0.55;0.40;;;1.50;99.90;;;;;;5047417;28;20099;-82
2021/12/03 09:25:46;;;;;;;0.20;0.20;;;1.50;99.90;;;;;;5018095;28;20096;-82
2021/12/03 09:28:12;;;;;;;0.20;0.20;;;1.60;99.90;;;;;;5031166;28;20576;-84
2021/12/03 09:30:41;;;;;;;0.10;0.10;;;1.60;99.90;;;;;;5057201;28;20057;-81
2021/12/03 09:33:12;;;;;;;0.20;0.20;;;1.60;99.90;;;;;;5050659;28;20091;-83
2021/12/03 09:35:43;;;;;;;0.20;0.20;;;2.30;99.90;;;;;;5051203;28;20124;-81
2021/12/03 09:38:11;;;;;;;0.17;0.17;;;1.60;99.90;;;;;;5052187;28;20486;-81
2021/12/03 09:40:39;;;;;;;0.20;0.20;;;1.70;99.90;;;;;;5050560;28;20490;-81
2021/12/03 09:43:07;;;;;;;0.20;0.20;;;2.40;99.90;;;;;;5067569;28;20084;-81
2021/12/03 09:45:38;;;;;;;0.20;0.20;;;1.70;99.90;;;;;;5066876;28;20044;-81
2021/12/03 09:48:16;;;;;;;0.20;0.20;;;2.80;99.90;;;;;;5051009;28;20045;-81
2021/12/03 09:50:43;;;;;;;0.25;0.25;;;1.70;99.90;;;;;;5047130;28;20042;-83
2021/12/03 09:53:28;;;;;;;0.20;0.20;;;2.00;99.90;;;;;;5046992;28;20049;-81
2021/12/03 09:55:55;;;;;;;0.13;0.13;;;1.80;99.90;;;;;;5022608;28;20041;-83
2021/12/03 10:01:08;;;;;;;0.20;0.20;;;1.80;99.90;;;;;;5048893;28;20060;-80
2021/12/03 10:04:02;;;;;;;0.20;0.20;;;1.90;99.90;;;;;;5034229;28;20046;-83
2021/12/03 10:15:41;;;;;;;0.52;0.52;;;2.00;99.90;;;;;;5052435;28;20045;-84
2021/12/03 10:18:18;;;;;;;0.20;0.20;;;2.10;99.90;;;;;;5027134;28;20490;-83
2021/12/03 10:20:53;;;;;;;0.20;0.20;;;2.10;99.90;;;;;;5041872;28;20049;-84
2021/12/03 10:49:17;;;;;;;0.20;0.20;;;2.30;99.90;;;;;;5065500;28;20048;-85
2021/12/03 10:51:58;;;;;;;0.20;0.20;;;2.30;99.90;;;;;;5081107;28;20452;-82
2021/12/03 10:57:10;;;;;;;0.10;0.10;;;2.30;99.90;;;;;;5085333;28;20072;-83
2021/12/03 11:16:49;;;;;;;0.30;0.30;;;2.40;99.90;;;;;;5044551;28;20068;-84
2021/12/03 12:30:17;;;;;;;0.20;0.20;;;3.40;99.90;;;;;;5071689;28;20457;-82
2021/12/03 14:49:32;;;;;;;0.20;0.20;;;2.60;99.90;;;;;;5048700;28;20046;-84
2021/12/03 15:08:39;;;;;;;0.20;0.20;;;2.70;99.90;;;;;;5081798;28;20052;-83
2021/12/03 15:32:27;;;;;;;0.20;0.20;;;3.00;99.90;;;;;;5075899;28;20041;-83
2021/12/03 15:34:44;;;;;;;0.20;0.20;;;3.50;99.90;;;;;;5057320;28;20049;-84
2021/12/03 15:37:26;;;;;;;0.22;0.22;;;3.20;99.90;;;;;;5061596;28;20070;-84
2021/12/03 15:54:14;;;;;;;0.20;0.20;;;3.20;99.90;;;;;;5077301;28;20509;-83
2021/12/03 16:04:27;;;;;;;0.20;0.20;;;3.20;99.90;;;;;;5181851;27;20066;-82
2021/12/03 16:12:27;;;;;;;0.20;0.20;;;4.30;99.90;;;;;;5170395;27;20139;-84
2021/12/03 16:20:19;;;;;;;0.47;0.45;;;4.20;99.90;;;;;;5168031;27;20038;-83
2021/12/03 16:25:29;;;;;;;0.10;0.10;;;3.30;99.90;;;;;;5150108;27;20121;-84
2021/12/03 16:44:50;;;;;;;0.22;0.22;;;3.30;99.90;;;;;;5147778;28;20180;-82
2021/12/03 16:47:33;;;;;;;0.20;0.20;;;3.40;99.90;;;;;;5132145;28;20105;-83
2021/12/03 16:52:58;;;;;;;0.20;0.20;;;3.30;99.90;;;;;;5092109;28;20051;-85
2021/12/03 16:55:25;;;;;;;0.10;0.10;;;3.40;99.90;;;;;;5158287;28;20232;-84
2021/12/03 16:57:53;;;;;;;0.10;0.10;;;3.30;99.90;;;;;;5112915;28;20027;-84
2021/12/03 17:00:27;;;;;;;0.10;0.10;;;3.40;99.90;;;;;;5146360;27;20892;-82
2021/12/03 17:16:11;;;;;;;0.20;0.20;;;3.30;99.90;;;;;;5115361;28;20050;-83
2021/12/03 17:50:43;;;;;;;0.10;0.10;;;3.40;99.90;;;;;;5114341;28;20044;-83
2021/12/03 17:58:29;;;;;;;0.20;0.20;;;3.70;99.90;;;;;;5115105;28;20119;-83
2021/12/03 18:00:59;;;;;;;0.20;0.20;;;3.50;99.90;;;;;;5129506;28;20083;-84
2021/12/03 18:03:31;;;;;;;0.20;0.20;;;3.50;99.90;;;;;;5166153;27;20905;-83
2021/12/03 18:16:44;;;;;;;0.10;0.10;;;3.80;99.90;;;;;;5168038;27;20065;-83
2021/12/03 18:47:23;;;;;;;0.20;0.20;;;3.60;99.90;;;;;;5133386;28;20498;-82
2021/12/03 18:55:34;;;;;;;0.10;0.10;;;3.70;99.90;;;;;;5147300;28;20088;-82
2021/12/03 18:58:03;;;;;;;0.20;0.20;;;3.60;99.90;;;;;;5132308;28;20039;-84
2021/12/03 19:00:40;;;;;;;0.10;0.10;;;4.20;99.90;;;;;;5145941;28;20078;-83
2021/12/03 19:03:36;;;;;;;0.10;0.10;;;3.60;99.90;;;;;;5130453;28;20068;-83
2021/12/03 19:13:54;;;;;;;0.10;0.10;;;3.70;99.90;;;;;;5115505;28;20419;-83
2021/12/03 19:16:24;;;;;;;0.20;0.20;;;3.90;99.90;;;;;;5130695;28;20081;-82
2021/12/03 19:18:57;;;;;;;0.10;0.10;;;4.00;99.90;;;;;;5113924;28;20040;-82
2021/12/03 19:21:27;;;;;;;0.10;0.10;;;3.70;99.90;;;;;;5113309;28;20542;-82
2021/12/03 19:23:58;;;;;;;0.20;0.20;;;3.70;99.90;;;;;;5147059;28;20096;-83
2021/12/03 19:26:26;;;;;;;0.10;0.10;;;3.70;99.90;;;;;;5146515;28;20047;-83
2021/12/03 19:28:54;;;;;;;0.10;0.10;;;3.70;99.90;;;;;;5113259;28;20165;-82
2021/12/03 19:31:23;;;;;;;0.10;0.10;;;3.90;99.90;;;;;;5129925;28;20050;-82
2021/12/03 19:33:50;;;;;;;0.20;0.20;;;4.10;99.90;;;;;;5164133;27;20507;-82
2021/12/03 19:36:23;;;;;;;0.20;0.20;;;3.70;99.90;;;;;;5129060;28;20050;-82
2021/12/03 19:38:52;;;;;;;0.10;0.10;;;3.70;99.90;;;;;;5130061;28;20050;-83
2021/12/03 19:47:01;;;;;;;0.10;0.10;;;4.20;99.90;;;;;;5072996;28;20036;-83
2021/12/03 19:51:56;;;;;;;0.10;0.10;;;4.60;99.90;;;;;;5147106;28;20520;-83
2021/12/03 19:54:23;;;;;;;0.10;0.10;;;3.80;99.90;;;;;;5147173;28;20411;-83
2021/12/03 19:56:51;;;;;;;0.10;0.10;;;3.80;99.90;;;;;;5112600;28;20036;-82
2021/12/03 19:59:19;;;;;;;0.20;0.20;;;4.30;99.90;;;;;;5129768;28;20031;-82
2021/12/03 20:01:47;;;;;;;0.10;0.10;;;4.20;99.90;;;;;;5129408;28;20055;-81
2021/12/03 20:04:14;;;;;;;0.20;0.20;;;3.90;99.90;;;;;;5163822;28;20050;-82
2021/12/03 20:06:44;;;;;;;0.30;0.30;;;4.00;99.90;;;;;;5129751;28;20043;-83
2021/12/03 20:09:24;;;;;;;0.17;0.17;;;3.90;99.90;;;;;;5130042;28;20039;-82
2021/12/03 20:11:54;;;;;;;0.43;0.43;;;4.50;99.90;;;;;;5129687;28;20431;-82
2021/12/03 20:14:22;;;;;;;0.10;0.10;;;4.10;99.90;;;;;;5130195;28;20101;-82
2021/12/03 20:17:00;;;;;;;0.20;0.20;;;3.90;99.90;;;;;;5113252;28;20050;-82
2021/12/03 20:22:15;;;;;;;0.30;0.30;;;4.50;99.90;;;;;;5112609;28;20040;-83
2021/12/03 20:25:13;;;;;;;0.10;0.10;;;4.00;99.90;;;;;;5115672;28;20123;-82
2021/12/03 20:27:45;;;;;;;0.10;0.10;;;4.30;99.90;;;;;;5120865;28;20032;-82
2021/12/03 20:30:22;;;;;;;0.20;0.20;;;4.00;99.90;;;;;;5146604;28;20105;-83
2021/12/03 20:38:19;;;;;;;0.20;0.20;;;4.00;99.90;;;;;;5132620;28;20055;-82
2021/12/03 20:40:52;;;;;;;0.10;0.10;;;4.00;99.90;;;;;;5113301;28;20069;-82
2021/12/03 21:09:50;;;;;;;0.10;0.10;;;4.00;99.90;;;;;;5121617;28;20040;-83
2021/12/03 21:12:24;;;;;;;0.10;0.10;;;4.30;99.90;;;;;;5133811;27;20075;-83
2021/12/03 21:15:03;;;;;;;0.10;0.10;;;4.50;99.90;;;;;;5150600;27;20123;-82
2021/12/03 21:20:22;;;;;;;0.20;0.20;;;4.40;99.90;;;;;;5132561;28;20452;-82
2021/12/03 21:22:50;;;;;;;0.17;0.17;;;4.00;99.90;;;;;;5120446;28;20039;-83
2021/12/03 21:25:20;;;;;;;0.15;0.15;;;4.00;99.90;;;;;;5113196;28;20036;-81
2021/12/03 21:27:54;;;;;;;0.10;0.10;;;4.00;99.90;;;;;;5146364;28;20079;-81
2021/12/03 21:33:15;;;;;;;0.10;0.10;;;4.00;99.90;;;;;;5148820;28;20412;-83
2021/12/03 21:41:26;;;;;;;0.10;0.10;;;4.00;99.90;;;;;;5134792;28;20043;-81
2021/12/03 21:43:54;;;;;;;0.10;0.10;;;4.00;99.90;;;;;;5113795;28;20036;-83
2021/12/03 21:46:25;;;;;;;0.10;0.10;;;4.00;99.90;;;;;;5149914;27;20047;-81
2021/12/03 21:48:53;;;;;;;0.10;0.10;;;4.00;99.90;;;;;;5137668;28;20114;-82